Cooper Landing, AK (99572)

2:23 PM AKDT on May 29, 2017 (GMT -0800)
cooper landing snug harbour | | Change Station

Elev 200 ft 60.49 °N, 149.79 °W | Updated 11 minutes ago

Partly Cloudy
Partly Cloudy
53.1 °F
Feels Like 53.1 °F
N
2.2
Wind Variable Wind from WNW

Today
High -- | Low -- °F
--% Chance of Precip.
Yesterday
High -- | Low -- °F
Precip. -- in
Pressure 29.98 in
Visibility 10.0 miles
Clouds Few 1200 ft
Few 6500 ft
Dew Point 37 °F
Humidity 54%
Rainfall 0.00 in
Snow Depth Not available.
4:47 AM 11:07 PM
Waxing Crescent, 23% visible
METAR PAWD 292153Z AUTO 19011KT 10SM FEW012 FEW065 09/05 A2998 RMK AO2 SLP151 T00890050 TSNO
Pressure 29.98 in
Visibility 10.0 miles
Clouds Few 1200 ft
Few 6500 ft
Dew Point 37 °F
Humidity 54%
Rainfall 0.00 in
Snow Depth Not available.
4:47 AM 11:07 PM
Waxing Crescent, 23% visible
METAR PAWD 292153Z AUTO 19011KT 10SM FEW012 FEW065 09/05 A2998 RMK AO2 SLP151 T00890050 TSNO

Get Severe Weather Alerts

Thanks for signing up!

Be on the lookout for a verification email in your inbox.

You'll start receiving the daily forecast at 6 AM.

×

10-Day Weather Forecast

Almanac

Astronomy

May. 29, 2017 Rise Set
Actual Time
Civil Twilight
Nautical Twilight
Astronomical Twilight
Moon
Length of Visible Light
Length of Day
Tomorrow will be .
, % of the Moon is Illuminated

Today's Extremes

State Highs State Lows

Community

WunderPhotos

Category 6

Welcome to Category 6. This is the collective home for Weather Underground's featured writeups by Dr. Jeff Masters (right), Bob Henson (left), Chris Burt, and other regular contributors.

Nearby

Air Quality

  Air Quality AQ Index Pollutant
Not available.

Snow Depth

Station Depth Elevation

Earthquake Activity

City Distance Mag. Time & Date
Minimum magnitude displayed is 2.5.

Coastal Water Temperatures

Place Temperature

Stations

Nearby Weather Stations

Station Location Temp. Windchill Dew Point Humidity Wind Precip. Elev Updated Type
                   

Watches & Warnings

There are currently no watches in effect.